Emslake — V2FL4 — position and weather

sailwx.info

Track history (hours):
 
Tides and Currents Weather Stations Pressure Air Temp Water Temp Dewpoint Dewpoint Depression Visibility Wind Speed Wind Dir Waves Ship Positions

Emslake

Last reported at 2015-Feb-01 14:33 UTC. Time now 2015-Feb-01 14:46 UTC.
Position N 54°35' E 011°06'.

Length 100 m; draft 5.7 m.

Type: Cargo ship. MMSI: 305712000.

Date/timePositionNaut miles runAvg speedWind from/ knotsBaromVisibWave heightAir tempDewpointWater temp
2015-Feb-01 14:33N 54°35' E 011°06'1110.8
2015-Feb-01 13:30N 54°34' E 010°47'1010.9
2015-Feb-01 12:34N 54°32' E 010°29'1010.1
2015-Feb-01 11:34N 54°26' E 010°14'6 5.7
2015-Feb-01 10:33N 54°22' E 010°08'3 3.5
2015-Feb-01 09:33N 54°22' E 010°03'6 6.4
2015-Feb-01 08:33N 54°22' E 009°52'7 7.3
2015-Feb-01 07:33N 54°18' E 009°41'7 7.1
2015-Feb-01 06:33N 54°12' E 009°34'8 7.6
2015-Feb-01 05:33N 54°09' E 009°22'4 4.0
2015-Feb-01 04:33N 54°05' E 009°19'5 5.2
2015-Feb-01 03:33N 54°00' E 009°18'7 7.0
2015-Feb-01 02:34N 53°55' E 009°10'3 3.2
2015-Feb-01 01:34N 53°53' E 009°06'0 0.2
2015-Feb-01 00:33N 53°53' E 009°05'7 6.6
2015-Jan-31 23:34N 53°51' E 008°55'6 6.5
2015-Jan-31 22:33N 53°52' E 008°44'0 0.0
2015-Jan-31 21:32N 53°52' E 008°44'0 0.1
2015-Jan-31 20:32N 53°52' E 008°44'0 0.1
2015-Jan-31 19:32N 53°52' E 008°44'6 6.5
2015-Jan-31 18:33N 53°57' E 008°37'1312.9
2015-Jan-31 17:33N 53°60' E 008°16'1212.1
2015-Jan-31 16:33N 53°58' E 007°55'1211.4
2015-Jan-31 15:31N 53°55' E 007°36'1110.6
2015-Jan-31 14:31N 53°53' E 007°18'1010.1
2015-Jan-31 13:33N 53°50' E 007°02'30 9.9
2015-Jan-31 10:33N 53°43' E 006°14'10 9.9
2015-Jan-31 09:34N 53°40' E 005°58'1010.2
2015-Jan-31 08:34N 53°36' E 005°41'1110.5
2015-Jan-31 07:34N 53°33' E 005°25'1110.7
2015-Jan-31 06:34N 53°30' E 005°08'1110.8
2015-Jan-31 05:34N 53°26' E 004°51'1010.2
2015-Jan-31 04:33N 53°18' E 004°40'1111.3
2015-Jan-31 03:32N 53°08' E 004°30'1111.3
2015-Jan-31 02:33N 52°59' E 004°21'1111.0
2015-Jan-31 01:33N 52°49' E 004°12'1111.0
2015-Jan-31 00:33N 52°40' E 004°01'1111.2
2015-Jan-30 23:33N 52°32' E 003°48'3110.3
2015-Jan-30 20:32N 52°04' E 003°26'10 9.6
2015-Jan-30 19:32N 51°55' E 003°22'9 9.5
2015-Jan-30 18:33N 51°46' E 003°17'8 8.1
2015-Jan-30 17:34N 51°39' E 003°21'9 9.0
2015-Jan-30 16:33N 51°30' E 003°27'8 7.7
2015-Jan-30 15:34N 51°26' E 003°38'10 9.7
2015-Jan-30 14:34N 51°20' E 003°49'1 1.1
2015-Jan-30 13:33N 51°19' E 003°50'7 7.2
2015-Jan-30 12:33N 51°12' E 003°48'7 6.6
2015-Jan-30 11:31N 51°05' E 003°44'0 0.0
2015-Jan-30 10:31N 51°05' E 003°44'0 0.0
2015-Jan-30 09:25N 51°05' E 003°44'0 0.0
2015-Jan-30 08:31N 51°05' E 003°44'0 0.0
2015-Jan-30 07:31N 51°05' E 003°44'0 0.0
2015-Jan-30 06:31N 51°05' E 003°44'0 0.0
2015-Jan-30 05:28N 51°05' E 003°44'0 0.0
2015-Jan-30 04:31N 51°05' E 003°44'0 0.0
2015-Jan-30 03:28N 51°05' E 003°44'0 0.0
2015-Jan-30 02:31N 51°05' E 003°44'0 0.0
2015-Jan-30 01:31N 51°05' E 003°44'0 0.0
2015-Jan-30 00:31N 51°05' E 003°44'0 0.0
2015-Jan-29 23:31N 51°05' E 003°44'0 0.0
2015-Jan-29 22:31N 51°05' E 003°44'0 0.0
2015-Jan-29 21:31N 51°05' E 003°44'0 0.0
2015-Jan-29 20:31N 51°05' E 003°44'0 0.0
2015-Jan-29 19:28N 51°05' E 003°44'0 0.0
2015-Jan-29 18:31N 51°05' E 003°44'0 0.0
2015-Jan-29 17:31N 51°05' E 003°44'0 0.0
2015-Jan-29 16:31N 51°05' E 003°44'0 0.0
2015-Jan-29 15:31N 51°05' E 003°44'0 0.0
2015-Jan-29 14:31N 51°05' E 003°44'0 0.0
2015-Jan-29 13:31N 51°05' E 003°44'0 0.0
2015-Jan-29 12:33N 51°05' E 003°44'0 0.0
2015-Jan-29 11:33N 51°05' E 003°44'0 0.0
2015-Jan-29 10:33N 51°05' E 003°44'4 4.1
2015-Jan-29 09:33N 51°09' E 003°47'8 8.5
2015-Jan-29 08:33N 51°17' E 003°50'3 3.4
2015-Jan-29 07:33N 51°20' E 003°49'1010.2
2015-Jan-29 06:33N 51°26' E 003°35'10 9.8
2015-Jan-29 05:34N 51°33' E 003°25'1510.7
2015-Jan-29 04:08N 51°45' E 003°10'2 2.7
2015-Jan-29 03:27N 51°47' E 003°08'52 8.8
2015-Jan-28 21:33N 52°28' E 002°15'10 9.6
2015-Jan-28 20:33N 52°36' E 002°07'10 9.5
2015-Jan-28 19:33N 52°45' E 002°00'10 9.7
2015-Jan-28 18:33N 52°50' E 001°47'1211.6
2015-Jan-28 17:34N 52°58' E 001°33'1212.1
2015-Jan-28 16:33N 53°03' E 001°15'32 0.9
2015-Jan-27 05:34N 53°25' E 000°34'10 9.6
2015-Jan-27 04:33N 53°34' E 000°32'9 9.2
2015-Jan-27 03:33N 53°43' E 000°27'9 9.4
2015-Jan-27 02:33N 53°52' E 000°21'9 9.5
2015-Jan-27 01:34N 54°00' E 000°14'10 9.8
2015-Jan-27 00:34N 54°08' E 000°04'1010.2
2015-Jan-26 23:34N 54°16' W 000°07'1110.9
2015-Jan-26 22:34N 54°24' W 000°19'1111.4
2015-Jan-26 21:34N 54°33' W 000°32'1211.9
2015-Jan-26 20:33N 54°40' W 000°48'1212.1
2015-Jan-26 19:33N 54°46' W 001°06'9 7.9
2015-Jan-26 18:28N 54°50' W 001°20'0 0.0
2015-Jan-26 17:32N 54°50' W 001°20'0 0.0
2015-Jan-26 16:32N 54°50' W 001°20'0 0.0
2015-Jan-26 15:23N 54°50' W 001°20'0 0.0
2015-Jan-26 14:26N 54°50' W 001°20'0 0.0
2015-Jan-26 13:23N 54°50' W 001°20'0 0.0
2015-Jan-26 12:23N 54°50' W 001°20'0 0.0
2015-Jan-26 11:26N 54°50' W 001°20'0 0.0
2015-Jan-26 10:26N 54°50' W 001°20'0 0.0
2015-Jan-26 09:29N 54°50' W 001°20'0 0.0
2015-Jan-26 08:29N 54°50' W 001°20'0 0.0
2015-Jan-26 07:32N 54°50' W 001°20'1 0.6
2015-Jan-26 06:33N 54°50' W 001°19'1 0.5
2015-Jan-26 05:32N 54°51' W 001°18'0 0.1
2015-Jan-26 04:32N 54°51' W 001°18'0 0.0
2015-Jan-26 03:29N 54°51' W 001°18'0 0.1
2015-Jan-26 02:20N 54°51' W 001°18'0 0.0
2015-Jan-26 01:32N 54°51' W 001°18'0 0.0
2015-Jan-25 23:20N 54°51' W 001°18'0 0.0
2015-Jan-25 20:11N 54°51' W 001°18'4 6.7
2015-Jan-25 19:33N 54°50' W 001°10'1010.1
2015-Jan-25 18:33N 54°49' W 000°53'13 9.6
2015-Jan-25 17:13N 54°48' W 000°31'6 9.9
2015-Jan-25 16:33N 54°48' W 000°20'10 9.8
2015-Jan-25 15:34N 54°47' W 000°03'1010.0
2015-Jan-25 14:33N 54°46' E 000°15'169 8.9
2015-Jan-24 19:26N 54°22' E 005°04'7 8.1
2015-Jan-24 18:32N 54°20' E 005°16'9 8.7
2015-Jan-24 17:33N 54°18' E 005°30'46 8.9
2015-Jan-24 12:25N 54°12' E 006°48'7 8.4
2015-Jan-24 11:33N 54°12' E 007°00'8 8.2
2015-Jan-24 10:34N 54°12' E 007°14'8 8.2
2015-Jan-24 09:33N 54°12' E 007°28'8 7.9
2015-Jan-24 08:33N 54°09' E 007°41'9 9.3
2015-Jan-24 07:33N 54°05' E 007°55'1010.5
2015-Jan-24 06:34N 54°01' E 008°11'1211.9
2015-Jan-24 05:34N 53°58' E 008°31'1211.6
2015-Jan-24 04:33N 53°51' E 008°46'9 9.3
2015-Jan-24 03:34N 53°52' E 009°02'4 4.3
2015-Jan-24 02:34N 53°54' E 009°09'1 0.6
2015-Jan-24 01:33N 53°54' E 009°09'1 0.7
2015-Jan-24 00:33N 53°55' E 009°10'8 7.7
2015-Jan-23 23:33N 54°01' E 009°18'8 8.4
2015-Jan-23 22:33N 54°09' E 009°22'7 7.4
2015-Jan-23 21:33N 54°12' E 009°33'1 0.9
2015-Jan-23 20:33N 54°13' E 009°35'7 7.1
2015-Jan-23 19:33N 54°18' E 009°42'7 7.0
2015-Jan-23 18:34N 54°21' E 009°53'7 6.6
2015-Jan-23 17:34N 54°22' E 010°04'3 2.8
2015-Jan-23 16:34N 54°22' E 010°09'8 8.3
2015-Jan-23 15:33N 54°29' E 010°16'9 9.5
2015-Jan-23 14:34N 54°33' E 010°31'10 9.4
2015-Jan-23 13:30N 54°35' E 010°48'9 9.4
2015-Jan-23 12:34N 54°36' E 011°03'10 9.6
2015-Jan-23 11:33N 54°34' E 011°19'10 9.8
2015-Jan-23 10:33N 54°30' E 011°35'1010.3
2015-Jan-23 09:33N 54°27' E 011°52'1110.5
2015-Jan-23 08:33N 54°28' E 012°10'1110.8
2015-Jan-23 07:33N 54°38' E 012°18'1110.8
2015-Jan-23 06:33N 54°44' E 012°34'1110.6
2015-Jan-23 05:32N 54°49' E 012°50'1110.6
2015-Jan-23 04:32N 54°53' E 013°07'1410.8
2015-Jan-23 03:15N 54°57' E 013°30'710.4
2015-Jan-23 02:33N 54°60' E 013°42'1410.1
2015-Jan-23 01:07N 55°06' E 014°05'6 9.9
2015-Jan-23 00:33N 55°10' E 014°11'1010.5
2015-Jan-22 23:34N 55°18' E 014°24'1111.1
2015-Jan-22 22:33N 55°26' E 014°37'1111.1
2015-Jan-22 21:33N 55°32' E 014°53'1110.6
2015-Jan-22 20:33N 55°37' E 015°09'1010.3
2015-Jan-22 19:33N 55°42' E 015°25'  
Track history (hours):
 
Tides and Currents Weather Stations Pressure Air Temp Water Temp Dewpoint Dewpoint Depression Visibility Wind Speed Wind Dir Waves Ship Positions

Emslake

Last reported at 2015-Feb-01 14:33 UTC. Time now 2015-Feb-01 14:46 UTC.
Position N 54°35' E 011°06'.

Length 100 m; draft 5.7 m.

Type: Cargo ship. MMSI: 305712000.

Date/timePositionNaut miles runAvg speedWind from/ knotsBaromVisibWave heightAir tempDewpointWater temp
2015-Feb-01 14:33N 54°35' E 011°06'1110.8
2015-Feb-01 13:30N 54°34' E 010°47'1010.9
2015-Feb-01 12:34N 54°32' E 010°29'1010.1
2015-Feb-01 11:34N 54°26' E 010°14'6 5.7
2015-Feb-01 10:33N 54°22' E 010°08'3 3.5
2015-Feb-01 09:33N 54°22' E 010°03'6 6.4
2015-Feb-01 08:33N 54°22' E 009°52'7 7.3
2015-Feb-01 07:33N 54°18' E 009°41'7 7.1
2015-Feb-01 06:33N 54°12' E 009°34'8 7.6
2015-Feb-01 05:33N 54°09' E 009°22'4 4.0
2015-Feb-01 04:33N 54°05' E 009°19'5 5.2
2015-Feb-01 03:33N 54°00' E 009°18'7 7.0
2015-Feb-01 02:34N 53°55' E 009°10'3 3.2
2015-Feb-01 01:34N 53°53' E 009°06'0 0.2
2015-Feb-01 00:33N 53°53' E 009°05'7 6.6
2015-Jan-31 23:34N 53°51' E 008°55'6 6.5
2015-Jan-31 22:33N 53°52' E 008°44'0 0.0
2015-Jan-31 21:32N 53°52' E 008°44'0 0.1
2015-Jan-31 20:32N 53°52' E 008°44'0 0.1
2015-Jan-31 19:32N 53°52' E 008°44'6 6.5
2015-Jan-31 18:33N 53°57' E 008°37'1312.9
2015-Jan-31 17:33N 53°60' E 008°16'1212.1
2015-Jan-31 16:33N 53°58' E 007°55'1211.4
2015-Jan-31 15:31N 53°55' E 007°36'1110.6
2015-Jan-31 14:31N 53°53' E 007°18'1010.1
2015-Jan-31 13:33N 53°50' E 007°02'30 9.9
2015-Jan-31 10:33N 53°43' E 006°14'10 9.9
2015-Jan-31 09:34N 53°40' E 005°58'1010.2
2015-Jan-31 08:34N 53°36' E 005°41'1110.5
2015-Jan-31 07:34N 53°33' E 005°25'1110.7
2015-Jan-31 06:34N 53°30' E 005°08'1110.8
2015-Jan-31 05:34N 53°26' E 004°51'1010.2
2015-Jan-31 04:33N 53°18' E 004°40'1111.3
2015-Jan-31 03:32N 53°08' E 004°30'1111.3
2015-Jan-31 02:33N 52°59' E 004°21'1111.0
2015-Jan-31 01:33N 52°49' E 004°12'1111.0
2015-Jan-31 00:33N 52°40' E 004°01'1111.2
2015-Jan-30 23:33N 52°32' E 003°48'3110.3
2015-Jan-30 20:32N 52°04' E 003°26'10 9.6
2015-Jan-30 19:32N 51°55' E 003°22'9 9.5
2015-Jan-30 18:33N 51°46' E 003°17'8 8.1
2015-Jan-30 17:34N 51°39' E 003°21'9 9.0
2015-Jan-30 16:33N 51°30' E 003°27'8 7.7
2015-Jan-30 15:34N 51°26' E 003°38'10 9.7
2015-Jan-30 14:34N 51°20' E 003°49'1 1.1
2015-Jan-30 13:33N 51°19' E 003°50'7 7.2
2015-Jan-30 12:33N 51°12' E 003°48'7 6.6
2015-Jan-30 11:31N 51°05' E 003°44'0 0.0
2015-Jan-30 10:31N 51°05' E 003°44'0 0.0
2015-Jan-30 09:25N 51°05' E 003°44'0 0.0
2015-Jan-30 08:31N 51°05' E 003°44'0 0.0
2015-Jan-30 07:31N 51°05' E 003°44'0 0.0
2015-Jan-30 06:31N 51°05' E 003°44'0 0.0
2015-Jan-30 05:28N 51°05' E 003°44'0 0.0
2015-Jan-30 04:31N 51°05' E 003°44'0 0.0
2015-Jan-30 03:28N 51°05' E 003°44'0 0.0
2015-Jan-30 02:31N 51°05' E 003°44'0 0.0
2015-Jan-30 01:31N 51°05' E 003°44'0 0.0
2015-Jan-30 00:31N 51°05' E 003°44'0 0.0
2015-Jan-29 23:31N 51°05' E 003°44'0 0.0
2015-Jan-29 22:31N 51°05' E 003°44'0 0.0
2015-Jan-29 21:31N 51°05' E 003°44'0 0.0
2015-Jan-29 20:31N 51°05' E 003°44'0 0.0
2015-Jan-29 19:28N 51°05' E 003°44'0 0.0
2015-Jan-29 18:31N 51°05' E 003°44'0 0.0
2015-Jan-29 17:31N 51°05' E 003°44'0 0.0
2015-Jan-29 16:31N 51°05' E 003°44'0 0.0
2015-Jan-29 15:31N 51°05' E 003°44'0 0.0
2015-Jan-29 14:31N 51°05' E 003°44'0 0.0
2015-Jan-29 13:31N 51°05' E 003°44'0 0.0
2015-Jan-29 12:33N 51°05' E 003°44'0 0.0
2015-Jan-29 11:33N 51°05' E 003°44'0 0.0
2015-Jan-29 10:33N 51°05' E 003°44'4 4.1
2015-Jan-29 09:33N 51°09' E 003°47'8 8.5
2015-Jan-29 08:33N 51°17' E 003°50'3 3.4
2015-Jan-29 07:33N 51°20' E 003°49'1010.2
2015-Jan-29 06:33N 51°26' E 003°35'10 9.8
2015-Jan-29 05:34N 51°33' E 003°25'1510.7
2015-Jan-29 04:08N 51°45' E 003°10'2 2.7
2015-Jan-29 03:27N 51°47' E 003°08'52 8.8
2015-Jan-28 21:33N 52°28' E 002°15'10 9.6
2015-Jan-28 20:33N 52°36' E 002°07'10 9.5
2015-Jan-28 19:33N 52°45' E 002°00'10 9.7
2015-Jan-28 18:33N 52°50' E 001°47'1211.6
2015-Jan-28 17:34N 52°58' E 001°33'1212.1
2015-Jan-28 16:33N 53°03' E 001°15'32 0.9
2015-Jan-27 05:34N 53°25' E 000°34'10 9.6
2015-Jan-27 04:33N 53°34' E 000°32'9 9.2
2015-Jan-27 03:33N 53°43' E 000°27'9 9.4
2015-Jan-27 02:33N 53°52' E 000°21'9 9.5
2015-Jan-27 01:34N 54°00' E 000°14'10 9.8
2015-Jan-27 00:34N 54°08' E 000°04'1010.2
2015-Jan-26 23:34N 54°16' W 000°07'1110.9
2015-Jan-26 22:34N 54°24' W 000°19'1111.4
2015-Jan-26 21:34N 54°33' W 000°32'1211.9
2015-Jan-26 20:33N 54°40' W 000°48'1212.1
2015-Jan-26 19:33N 54°46' W 001°06'9 7.9
2015-Jan-26 18:28N 54°50' W 001°20'0 0.0
2015-Jan-26 17:32N 54°50' W 001°20'0 0.0
2015-Jan-26 16:32N 54°50' W 001°20'0 0.0
2015-Jan-26 15:23N 54°50' W 001°20'0 0.0
2015-Jan-26 14:26N 54°50' W 001°20'0 0.0
2015-Jan-26 13:23N 54°50' W 001°20'0 0.0
2015-Jan-26 12:23N 54°50' W 001°20'0 0.0
2015-Jan-26 11:26N 54°50' W 001°20'0 0.0
2015-Jan-26 10:26N 54°50' W 001°20'0 0.0
2015-Jan-26 09:29N 54°50' W 001°20'0 0.0
2015-Jan-26 08:29N 54°50' W 001°20'0 0.0
2015-Jan-26 07:32N 54°50' W 001°20'1 0.6
2015-Jan-26 06:33N 54°50' W 001°19'1 0.5
2015-Jan-26 05:32N 54°51' W 001°18'0 0.1
2015-Jan-26 04:32N 54°51' W 001°18'0 0.0
2015-Jan-26 03:29N 54°51' W 001°18'0 0.1
2015-Jan-26 02:20N 54°51' W 001°18'0 0.0
2015-Jan-26 01:32N 54°51' W 001°18'0 0.0
2015-Jan-25 23:20N 54°51' W 001°18'0 0.0
2015-Jan-25 20:11N 54°51' W 001°18'4 6.7
2015-Jan-25 19:33N 54°50' W 001°10'1010.1
2015-Jan-25 18:33N 54°49' W 000°53'13 9.6
2015-Jan-25 17:13N 54°48' W 000°31'6 9.9
2015-Jan-25 16:33N 54°48' W 000°20'10 9.8
2015-Jan-25 15:34N 54°47' W 000°03'1010.0
2015-Jan-25 14:33N 54°46' E 000°15'169 8.9
2015-Jan-24 19:26N 54°22' E 005°04'7 8.1
2015-Jan-24 18:32N 54°20' E 005°16'9 8.7
2015-Jan-24 17:33N 54°18' E 005°30'46 8.9
2015-Jan-24 12:25N 54°12' E 006°48'7 8.4
2015-Jan-24 11:33N 54°12' E 007°00'8 8.2
2015-Jan-24 10:34N 54°12' E 007°14'8 8.2
2015-Jan-24 09:33N 54°12' E 007°28'8 7.9
2015-Jan-24 08:33N 54°09' E 007°41'9 9.3
2015-Jan-24 07:33N 54°05' E 007°55'1010.5
2015-Jan-24 06:34N 54°01' E 008°11'1211.9
2015-Jan-24 05:34N 53°58' E 008°31'1211.6
2015-Jan-24 04:33N 53°51' E 008°46'9 9.3
2015-Jan-24 03:34N 53°52' E 009°02'4 4.3
2015-Jan-24 02:34N 53°54' E 009°09'1 0.6
2015-Jan-24 01:33N 53°54' E 009°09'1 0.7
2015-Jan-24 00:33N 53°55' E 009°10'8 7.7
2015-Jan-23 23:33N 54°01' E 009°18'8 8.4
2015-Jan-23 22:33N 54°09' E 009°22'7 7.4
2015-Jan-23 21:33N 54°12' E 009°33'1 0.9
2015-Jan-23 20:33N 54°13' E 009°35'7 7.1
2015-Jan-23 19:33N 54°18' E 009°42'7 7.0
2015-Jan-23 18:34N 54°21' E 009°53'7 6.6
2015-Jan-23 17:34N 54°22' E 010°04'3 2.8
2015-Jan-23 16:34N 54°22' E 010°09'8 8.3
2015-Jan-23 15:33N 54°29' E 010°16'9 9.5
2015-Jan-23 14:34N 54°33' E 010°31'10 9.4
2015-Jan-23 13:30N 54°35' E 010°48'9 9.4
2015-Jan-23 12:34N 54°36' E 011°03'10 9.6
2015-Jan-23 11:33N 54°34' E 011°19'10 9.8
2015-Jan-23 10:33N 54°30' E 011°35'1010.3
2015-Jan-23 09:33N 54°27' E 011°52'1110.5
2015-Jan-23 08:33N 54°28' E 012°10'1110.8
2015-Jan-23 07:33N 54°38' E 012°18'1110.8
2015-Jan-23 06:33N 54°44' E 012°34'1110.6
2015-Jan-23 05:32N 54°49' E 012°50'1110.6
2015-Jan-23 04:32N 54°53' E 013°07'1410.8
2015-Jan-23 03:15N 54°57' E 013°30'710.4
2015-Jan-23 02:33N 54°60' E 013°42'1410.1
2015-Jan-23 01:07N 55°06' E 014°05'6 9.9
2015-Jan-23 00:33N 55°10' E 014°11'1010.5
2015-Jan-22 23:34N 55°18' E 014°24'1111.1
2015-Jan-22 22:33N 55°26' E 014°37'1111.1
2015-Jan-22 21:33N 55°32' E 014°53'1110.6
2015-Jan-22 20:33N 55°37' E 015°09'1010.3
2015-Jan-22 19:33N 55°42' E 015°25'  

Dump ship's entire track history